Estación Meteorológica Peña el Pijo (Robertgarden) [ 09/24/17 17:48:23 CEST ]

Fecha Hora Presion(HPa) Temp (°C) Humedad % Rocio (°C) Viento ( m/s) Direccion Lluvia 1Hora(mm) Lluvia 24H(mm) LLuvia Total(mm)
2017-Aug-27 01:02:02 1012.900 16.5 83 13.6       11.39 1450.91
2017-Aug-27 02:01:40 1012.300 15.9 85 13.4       11.39 1450.91
2017-Aug-27 03:01:09 1012.100 15.8 86 13.5       11.39 1450.91
2017-Aug-27 04:01:08 1011.600 15.6 87 13.5       11.39 1450.91
2017-Aug-27 05:01:15 1011.100 15.8 88 13.8       11.39 1450.91
2017-Aug-27 06:01:10 1011.000 16.1 88 14.1       11.39 1450.91
2017-Aug-27 07:01:52 1010.800 16.2 88 14.2       11.39 1450.91
2017-Aug-27 08:01:56 1010.900 16.3 88 14.3       11.39 1450.91
2017-Aug-27 09:01:43 1011.000 16.5 88 14.5       11.39 1450.91
2017-Aug-27 10:01:45 1011.500 17.5 86 15.1       11.39 1450.91
2017-Aug-27 11:02:06 1011.600 20.8 84 18.0       11.39 1450.91
2017-Aug-27 12:01:49 1011.700 23.3 65 16.3       11.39 1450.91
2017-Aug-27 13:01:52 1011.600 26.3 56 16.8       11.39 1450.91
2017-Aug-27 14:01:40 1011.600 31.6 38 15.5       11.39 1450.91
2017-Aug-27 15:01:41 1011.900 26.3 52 15.6       11.39 1450.91
2017-Aug-27 16:01:42 1011.500 27.3 47 14.9     0.51 11.91 1451.43
2017-Aug-27 17:01:49 1012.100 24.8 55 15.1       10.87 1451.43
2017-Aug-27 18:01:45 1012.400 22.2 64 15.0       0.51 1451.43
2017-Aug-27 19:01:52 1011.900 22.8 65 15.9       0.51 1451.43
2017-Aug-27 20:01:44 1011.600 21.3 67 14.9       0.51 1451.43
2017-Aug-27 21:01:38 1011.400 19.5 71 14.1       0.51 1451.43
2017-Aug-27 22:01:54 1011.700 17.8 78 13.9       0.51 1451.43
2017-Aug-27 23:01:46 1011.800 17.0 81 13.7       0.51 1451.43

Temperatura Máxima:31°    Temperatura Mínima:15°
Presión Máxima:1012.900 Hpa    Presión Mínima:1010.800 Hpa


Volver